Latest Coastal Weather Observations for Ceduna

IDS60701

Issued at 6:11 pm CST Thursday 26 May 2016 (issued every 10 minutes, with the page automatically refreshed every 10 minutes)

About coastal observations | Map of coastal stations | Coastal observations for SA | Marine services | Other Formats
Station Details ID: 018012 Name: CEDUNA AMO Lat: -32.13 Lon: 133.70 Height: 15.3 m
Data from the previous 72 hours. | See also: Recent months at Ceduna
Date/Time
CST
Temp

°C
Wind Pressure Rain
since 9am
mm
Weather Cloud Vis
km
Sea
Height
m
Swell
Dir
 
Speed
knots
Gust
knots
hPa Trend Height
m
Period
s
Dir
26/06:00pm 15.9 W 8 10 1013.8 R 0.2 - Cloudy 10 - - - -
26/05:30pm 16.1 W 10 13 1013.3 - 0.2 - Partly cloudy 10 - - - -
26/05:00pm 16.3 WSW 12 16 1013.0 - 0.2 - Cloudy 10 - - - -
26/04:30pm 17.0 WSW 9 13 1013.2 - 0.2 - Cloudy 10 - - - -
26/04:00pm 17.1 WSW 10 14 1013.0 - 0.2 - Cloudy 10 - - - -
26/03:30pm 17.3 SW 7 9 1012.8 - 0.2 - Cloudy 10 - - - -
26/03:00pm 18.0 W 3 6 1012.5 R 0.2 - Mostly cloudy 10 - - - -
26/02:30pm 18.3 WSW 5 8 1012.4 - 0.2 - - 10 - - - -
26/02:00pm 18.1 WSW 8 11 1012.8 - 0.2 - Partly cloudy 10 - - - -
26/01:30pm 17.4 SW 8 11 1012.7 - 0.2 - Cloudy 10 - - - -
26/01:00pm 18.8 W 6 9 1012.9 - 0.2 - Partly cloudy 10 - - - -
26/12:30pm 17.8 WNW 6 9 1013.1 - 0.2 - - 10 - - - -
26/12:00pm 18.1 WNW 6 9 1013.4 R 0.2 - - 10 - - - -
26/11:30am 17.7 WNW 6 8 1013.6 - 0.2 - - 10 - - - -
26/11:00am 17.7 NW 6 8 1013.5 - 0.2 - - 10 - - - -
26/10:30am 16.7 NW 5 7 1014.0 - 0.0 - - 10 - - - -
26/10:00am 16.0 NW 4 6 1013.6 - 0.0 - - 10 - - - -
26/09:30am 14.7 NNW 5 7 1013.3 - 0.0 - Partly cloudy 10 - - - -
26/09:00am 13.4 NNW 6 7 1013.3 R 5.6 - Mostly clear 10 - - - -
26/08:30am 12.5 NNW 4 6 1012.9 - 5.6 - - 10 - - - -
26/08:00am 11.1 N 5 6 1012.2 - 5.6 - - 10 - - - -
26/07:30am 10.8 N 6 7 1012.3 - 5.6 - - 10 - - - -
26/07:00am 12.7 SW 5 6 1012.2 - 5.6 - Partly cloudy 10 - - - -
26/06:30am 13.1 SW 6 7 1011.8 - 5.6 - Partly cloudy 10 - - - -
26/06:00am 13.1 SSW 5 6 1011.5 S 5.6 - Mostly clear 10 - - - -
26/05:30am 13.3 SSW 6 7 1011.0 - 5.6 - Partly cloudy 10 - - - -
26/05:00am 14.5 SW 9 10 1011.4 - 5.6 - Partly cloudy 10 - - - -
26/04:30am 14.5 SW 8 10 1011.6 - 5.6 - Cloudy 10 - - - -
26/04:00am 14.4 SW 7 8 1011.0 - 5.6 - Cloudy 10 - - - -
26/03:30am 14.1 WSW 6 8 1011.2 - 5.6 - Partly cloudy 10 - - - -
26/03:06am 14.2 WNW 6 8 1011.2 - 5.6 - Partly cloudy 10 - - - -
26/03:00am 14.3 NW 6 9 1011.2 R 5.6 Rain Mostly cloudy 8 - - - -
26/02:51am 14.3 NW 6 9 1011.2 - 5.6 - Partly cloudy 5 - - - -
26/02:30am 14.0 WNW 5 7 1011.2 - 5.0 - Partly cloudy 10 - - - -
26/02:00am 14.3 WNW 6 8 1011.3 - 5.0 - Cloudy 10 - - - -
26/01:30am 14.6 WNW 5 7 1011.2 - 5.0 - Cloudy 10 - - - -
26/01:00am 14.7 WNW 6 7 1011.3 - 5.0 - Partly cloudy 10 - - - -
26/12:30am 14.8 WNW 8 10 1011.3 - 5.0 - Partly cloudy 10 - - - -
26/12:00am 14.8 W 5 7 1011.4 R 5.0 - Mostly cloudy 10 - - - -
 
Date/Time
CST
Temp

°C
Wind Pressure Rain
since 9am
mm
Weather Cloud Vis
km
Sea
Height
m
Swell
Dir
 
Speed
knots
Gust
knots
hPa Trend Height
m
Period
s
Dir
25/11:30pm 14.9 SW 4 5 1011.3 - 5.0 - Partly cloudy 10 - - - -
25/11:00pm 14.6 SW 6 7 1011.1 - 5.0 - Partly cloudy 10 - - - -
25/10:30pm 15.6 SW 7 9 1011.1 - 5.0 - Partly cloudy 10 - - - -
25/10:00pm 15.9 SW 8 11 1011.1 - 5.0 - Partly cloudy 10 - - - -
25/09:30pm 16.0 WSW 8 11 1011.1 - 5.0 - Cloudy 10 - - - -
25/09:00pm 16.2 SW 10 13 1010.4 R 5.0 Recent precip. Cloudy 10 - - - -
25/08:30pm 16.1 SW 12 16 1010.3 - 5.0 - Partly cloudy 10 - - - -
25/08:16pm 16.0 SW 11 16 1010.2 - 5.0 - Partly cloudy 7 - - - -
25/08:04pm 16.2 WSW 11 15 1010.1 - 4.8 - Partly cloudy 10 - - - -
25/08:02pm 16.2 WSW 11 15 1010.1 - 4.8 - Partly cloudy 10 - - - -
25/08:00pm 16.2 WSW 11 15 1010.1 - 4.8 - Partly cloudy 10 - - - -
25/07:46pm 16.3 WSW 12 17 1009.7 - 4.8 - Partly cloudy 10 - - - -
25/07:33pm 16.1 WSW 13 19 1009.4 - 4.8 - Partly cloudy 4 - - - -
25/07:30pm 16.1 WSW 14 20 1009.3 - 4.8 - Partly cloudy 4 - - - -
25/07:23pm 16.2 WSW 15 21 1009.2 - 3.8 - Partly cloudy 5 - - - -
25/07:00pm 17.6 NW 11 14 1008.6 - 3.0 - Partly cloudy 10 - - - -
25/06:30pm 17.4 NNW 6 9 1008.2 - 3.0 - Partly cloudy 10 - - - -
25/06:00pm 17.4 NNW 7 9 1007.9 R 3.0 Recent precip. Cloudy 10 - - - -
25/05:30pm 17.5 NNW 8 11 1007.7 - 3.0 - Cloudy 10 - - - -
25/05:00pm 17.8 NNW 8 10 1007.5 - 2.8 - Partly cloudy 10 - - - -
25/04:30pm 18.3 NNW 8 11 1007.2 - 2.8 - Partly cloudy 10 - - - -
25/04:00pm 18.3 NNW 10 13 1007.2 - 2.8 - Partly cloudy 10 - - - -
25/03:30pm 18.5 NNW 11 13 1007.2 - 2.8 - Partly cloudy 10 - - - -
25/03:00pm 18.4 NNW 11 14 1007.2 F 2.8 - Cloudy 10 - - - -
25/02:30pm 18.3 NNW 10 13 1007.2 - 2.8 - - 10 - - - -
25/02:00pm 18.1 NW 9 13 1007.6 - 2.8 - Partly cloudy 10 - - - -
25/01:30pm 17.8 N 13 17 1007.2 - 2.8 - Partly cloudy 10 - - - -
25/01:00pm 18.0 N 13 17 1007.1 - 2.8 - Partly cloudy 10 - - - -
25/12:30pm 16.3 N 10 13 1008.6 - 2.8 - Partly cloudy 10 - - - -
25/12:00pm 15.5 NNW 6 8 1010.1 R 2.2 Rain Cloudy 10 - - - -
25/11:30am 15.6 NNW 7 9 1010.3 - 1.2 - Partly cloudy 10 - - - -
25/11:00am 15.7 NNE 5 6 1010.3 - 0.4 - Partly cloudy 10 - - - -
25/10:30am 16.2 NE 6 8 1009.6 - 0.0 - Partly cloudy 10 - - - -
25/10:00am 15.6 NE 9 12 1009.2 - 0.0 - Partly cloudy 10 - - - -
25/09:30am 15.5 NE 7 9 1009.9 - 0.0 - Partly cloudy 10 - - - -
25/09:00am 15.4 NNE 7 9 1010.4 F 3.6 Recent precip. Cloudy 10 - - - -
25/08:30am 14.5 NNE 5 6 1010.3 - 3.6 - Partly cloudy 10 - - - -
25/08:00am 14.1 NNE 10 12 1010.6 - 3.4 - Partly cloudy 10 - - - -
25/07:30am 14.2 N 6 7 1011.2 - 3.0 - Partly cloudy 10 - - - -
25/07:00am 14.1 NE 9 11 1010.1 - 2.6 - Cloudy 10 - - - -
25/06:30am 14.1 NE 8 9 1009.7 - 2.6 - Cloudy 10 - - - -
25/06:00am 14.4 NE 8 8 1010.3 F 2.6 Rain Partly cloudy 10 - - - -
25/05:30am 14.4 N 4 5 1011.0 - 2.2 - Partly cloudy 10 - - - -
25/05:00am 14.7 WNW 5 6 1011.4 - 1.6 - Partly cloudy 10 - - - -
25/04:30am 15.2 N 4 5 1010.8 - 0.6 - Partly cloudy 10 - - - -
25/04:00am 15.5 NE 9 9 1009.9 - 0.4 - Cloudy 10 - - - -
25/03:30am 15.6 NE 7 9 1009.8 - 0.4 - Cloudy 10 - - - -
25/03:00am 16.9 NNE 7 8 1010.4 R 0.4 Recent precip. Cloudy 10 - - - -
25/02:30am 17.7 NNW 12 18 1011.3 - 0.4 - Cloudy 10 - - - -
25/02:00am 16.6 N 10 13 1010.5 - 0.2 - Partly cloudy 10 - - - -
25/01:33am 19.7 N 17 27 1009.7 - 0.2 - Partly cloudy 10 - - - -
25/01:30am 19.2 N 16 22 1010.1 - 0.2 - Partly cloudy 10 - - - -
25/01:00am 20.5 N 16 21 1009.4 - 0.2 - Partly cloudy 10 - - - -
25/12:30am 20.3 N 16 21 1009.8 - 0.2 - Partly cloudy 10 - - - -
25/12:00am 20.4 N 16 22 1010.0 F 0.2 - Cloudy 10 - - - -
 
Date/Time
CST
Temp

°C
Wind Pressure Rain
since 9am
mm
Weather Cloud Vis
km
Sea
Height
m
Swell
Dir
 
Speed
knots
Gust
knots
hPa Trend Height
m
Period
s
Dir
24/11:30pm 20.0 N 15 20 1010.4 - 0.2 - Partly cloudy 10 - - - -
24/11:00pm 19.9 N 16 20 1010.7 - 0.2 - - 10 - - - -
24/10:30pm 20.1 N 16 21 1011.2 - 0.2 - - 10 - - - -
24/10:00pm 20.0 N 16 19 1011.4 - 0.2 - - 10 - - - -
24/09:30pm 20.1 NNE 15 20 1011.5 - 0.2 - - 10 - - - -
24/09:00pm 19.9 NNE 13 16 1011.8 F 0.2 - Mostly clear 10 - - - -
24/08:30pm 20.3 NNE 14 17 1012.0 - 0.2 - - 10 - - - -
24/08:00pm 20.9 NNE 15 19 1011.8 - 0.2 - - 10 - - - -
24/07:30pm 20.8 NNE 12 15 1011.9 - 0.2 - - 10 - - - -
24/07:00pm 20.8 NNE 10 12 1012.0 - 0.2 - - 10 - - - -
24/06:30pm 20.8 NNE 10 12 1012.0 - 0.2 - Partly cloudy 10 - - - -
24/06:00pm 20.8 NNE 9 11 1012.2 F 0.2 - Cloudy 10 - - - -
24/05:30pm 21.8 NNE 11 13 1012.3 - 0.2 - Partly cloudy 10 - - - -
24/05:00pm 23.0 N 15 20 1012.3 - 0.2 - - 10 - - - -
24/04:30pm 23.8 N 13 20 1012.6 - 0.2 - - 10 - - - -
24/04:00pm 23.6 N 14 20 1013.0 - 0.2 - - 10 - - - -
24/03:30pm 23.5 N 15 19 1013.3 - 0.2 - - 10 - - - -
24/03:00pm 23.1 N 14 17 1013.7 F 0.2 - - 10 - - - -
24/02:30pm 23.8 N 16 21 1014.2 - 0.2 - - 10 - - - -
24/02:00pm 22.7 N 16 20 1014.6 - 0.2 - - 10 - - - -
24/01:30pm 22.7 N 15 20 1015.1 - 0.2 - - 10 - - - -
24/01:00pm 21.8 NNE 15 19 1016.0 - 0.0 - - 10 - - - -
24/12:30pm 21.6 N 16 20 1016.8 - 0.0 - - 10 - - - -
24/12:00pm 20.8 N 17 22 1017.2 F 0.0 - - 10 - - - -
24/11:30am 20.2 N 20 25 1017.8 - 0.0 - - 10 - - - -
24/11:00am 19.1 NNE 19 23 1018.4 - 0.0 - - 10 - - - -
24/10:30am 18.4 N 17 21 1019.0 - 0.0 - - 10 - - - -
24/10:00am 16.9 N 16 21 1019.5 - 0.0 - - 10 - - - -
24/09:30am 15.3 NNE 14 18 1019.8 - 0.0 - - 10 - - - -
24/09:00am 13.7 NNE 9 14 1020.1 F 0.0 - - 10 - - - -
24/08:30am 11.1 N 5 9 1020.2 - 0.0 - - 10 - - - -
24/08:00am 8.4 NE 9 12 1020.2 - 0.0 - - 10 - - - -
24/07:30am 7.2 NNE 8 9 1020.5 - 0.0 - - 10 - - - -
24/07:00am 5.9 NE 8 9 1020.6 - 0.0 - - 10 - - - -
24/06:30am 5.7 NE 7 8 1020.7 - 0.0 - - 10 - - - -
24/06:00am 6.8 NE 8 9 1020.6 F 0.0 - - 10 - - - -
24/05:30am 6.8 NE 8 9 1020.7 - 0.0 - - 10 - - - -
24/05:00am 7.0 NE 9 10 1021.1 - 0.0 - - 10 - - - -
24/04:30am 7.5 NE 9 11 1021.2 - 0.0 - - 10 - - - -
24/04:00am 7.4 ENE 7 8 1021.4 - 0.0 - - 10 - - - -
24/03:30am 7.6 ENE 9 10 1021.5 - 0.0 - - 10 - - - -
24/03:00am 8.0 ENE 9 10 1021.9 F 0.0 - Mostly clear 10 - - - -
24/02:30am 8.4 ENE 9 10 1021.8 - 0.0 - - 10 - - - -
24/02:00am 9.1 ENE 9 10 1022.0 - 0.0 - - 10 - - - -
24/01:30am 9.3 ENE 8 9 1022.3 - 0.0 - - 10 - - - -
24/01:00am 10.1 ENE 9 11 1022.5 - 0.0 - - 10 - - - -
24/12:30am 9.9 ENE 8 10 1022.4 - 0.0 - - 10 - - - -
24/12:00am 9.5 NE 9 12 1022.6 F 0.0 - - 10 - - - -
 
Date/Time
CST
Temp

°C
Wind Pressure Rain
since 9am
mm
Weather Cloud Vis
km
Sea
Height
m
Swell
Dir
 
Speed
knots
Gust
knots
hPa Trend Height
m
Period
s
Dir
23/11:30pm 8.8 NE 8 10 1023.0 - 0.0 - - 10 - - - -
23/11:00pm 9.2 NE 9 9 1023.3 - 0.0 - - 10 - - - -
23/10:30pm 8.6 ENE 7 8 1023.5 - 0.0 - - 10 - - - -
23/10:00pm 8.9 NE 7 8 1023.8 - 0.0 - - 10 - - - -
23/09:30pm 9.4 NE 5 5 1023.9 - 0.0 - - 10 - - - -
23/09:00pm 9.7 NE 5 6 1024.0 F 0.0 - - 10 - - - -
23/08:30pm 10.1 E 5 7 1023.8 - 0.0 - - 10 - - - -
23/08:00pm 9.8 SE 6 7 1023.7 - 0.0 - - 10 - - - -
23/07:30pm 9.8 SE 6 6 1023.9 - 0.0 - - 10 - - - -
23/07:00pm 11.1 SE 5 6 1023.9 - 0.0 - - 10 - - - -
23/06:30pm 13.5 S 7 8 1023.8 - 0.0 - - 10 - - - -

Other Formats:

Comma delimited format used in spreadsheet applications
http://www.bom.gov.au/fwo/IDS60701/IDS60701.94653.axf

JavaScript Object Notation format (JSON) in row-major order
http://www.bom.gov.au/fwo/IDS60701/IDS60701.94653.json